createdAt,value
2022-08-09T00:00:19.504Z,20.3200
2022-08-09T00:01:21.907Z,20.1500
2022-08-09T00:02:24.285Z,20.0800
2022-08-09T00:04:10.699Z,20.1400
2022-08-09T00:04:34.676Z,20.3200
2022-08-09T00:06:17.290Z,20.3100
2022-08-09T00:06:33.603Z,20.0200
2022-08-09T00:07:44.486Z,20.1100
2022-08-09T00:08:36.116Z,20.1500
2022-08-09T00:09:38.432Z,19.9900
2022-08-09T00:10:40.804Z,19.5100
2022-08-09T00:12:02.951Z,19.5800
2022-08-09T00:12:43.286Z,19.6300
2022-08-09T00:13:45.662Z,19.8100
2022-08-09T00:14:47.993Z,19.8800
2022-08-09T00:15:58.102Z,19.4500
2022-08-09T00:16:52.735Z,19.2900
2022-08-09T00:18:05.943Z,19.4200
2022-08-09T00:18:55.333Z,19.3900
2022-08-09T00:19:57.688Z,19.5300
2022-08-09T00:21:00.073Z,19.5600
2022-08-09T00:22:03.504Z,19.5600
2022-08-09T00:23:53.959Z,19.3100
2022-08-09T00:24:04.922Z,19.4000
2022-08-09T00:25:10.028Z,19.0700
2022-08-09T00:26:11.142Z,18.8600
2022-08-09T00:27:11.931Z,18.6200
2022-08-09T00:28:14.277Z,18.4100
2022-08-09T00:30:09.989Z,18.3700
2022-08-09T00:30:25.799Z,18.2500
2022-08-09T00:31:58.328Z,18.2500
2022-08-09T00:32:35.821Z,18.6100
2022-08-09T00:33:32.679Z,18.9900
2022-08-09T00:34:24.192Z,19.0000
2022-08-09T00:35:26.507Z,19.3000
2022-08-09T00:36:30.748Z,19.2400
2022-08-09T00:37:32.354Z,19.2600
2022-08-09T00:38:31.479Z,19.0500
2022-08-09T00:40:09.339Z,19.0500
2022-08-09T00:40:34.117Z,19.3300
2022-08-09T00:44:11.765Z,19.4600
2022-08-09T00:44:16.958Z,19.5900
2022-08-09T00:44:19.576Z,19.5100
2022-08-09T00:44:39.441Z,19.3700
2022-08-09T00:45:50.550Z,19.3500
2022-08-09T00:46:57.415Z,19.3300
2022-08-09T00:47:42.358Z,19.3800
2022-08-09T00:48:47.562Z,19.4500
2022-08-09T00:49:54.641Z,19.6300
2022-08-09T00:50:45.366Z,19.7900
2022-08-09T00:51:55.943Z,19.6700
2022-08-09T00:52:50.188Z,19.5200
2022-08-09T00:53:52.697Z,19.5600
2022-08-09T00:54:55.033Z,19.6300
2022-08-09T00:56:05.035Z,19.7300
2022-08-09T00:56:57.651Z,19.3700
2022-08-09T00:58:00.045Z,19.5500
2022-08-09T00:59:02.395Z,19.6900
2022-08-09T01:00:20.715Z,19.7800
2022-08-09T01:01:07.191Z,19.9500
2022-08-09T01:02:07.333Z,19.8900
2022-08-09T01:03:09.661Z,19.2400
2022-08-09T01:04:11.976Z,19.4400
2022-08-09T01:05:21.737Z,19.5300
2022-08-09T01:06:17.733Z,19.4500
2022-08-09T01:07:16.800Z,19.3600
2022-08-09T01:08:19.132Z,19.4600
2022-08-09T01:09:21.475Z,19.2800
2022-08-09T01:10:25.917Z,18.9400
2022-08-09T01:11:26.299Z,18.4300
2022-08-09T01:12:26.556Z,18.5200
2022-08-09T01:13:41.583Z,18.5800
2022-08-09T01:14:31.336Z,18.8500
2022-08-09T01:15:33.720Z,19.0900
2022-08-09T01:16:35.254Z,19.0300
2022-08-09T01:17:36.272Z,19.0300
2022-08-09T01:18:38.597Z,18.8100
2022-08-09T01:19:51.592Z,19.2100
2022-08-09T01:20:43.283Z,19.3900
2022-08-09T01:21:50.798Z,19.3100
2022-08-09T01:22:45.769Z,19.3300
2022-08-09T01:24:02.974Z,19.3800
2022-08-09T01:24:52.271Z,19.5700
2022-08-09T01:27:07.839Z,19.3100
2022-08-09T01:28:06.230Z,19.1500
2022-08-09T01:29:08.564Z,19.3200
2022-08-09T01:30:35.494Z,19.4000
2022-08-09T01:32:28.028Z,19.1500
2022-08-09T01:32:31.281Z,18.8600
2022-08-09T01:33:17.792Z,19.0800
2022-08-09T01:34:17.971Z,19.1500
2022-08-09T01:35:37.642Z,18.9800
2022-08-09T01:36:22.670Z,18.9400
2022-08-09T01:38:05.821Z,18.8300
2022-08-09T01:38:27.340Z,18.8900
2022-08-09T01:39:29.705Z,18.7700
2022-08-09T01:40:29.981Z,18.7600
2022-08-09T01:41:32.261Z,19.0000
2022-08-09T01:42:34.671Z,19.3800
2022-08-09T01:43:41.857Z,19.3600
2022-08-09T01:44:37.225Z,19.2200
2022-08-09T01:45:45.979Z,19.4200
2022-08-09T01:46:41.904Z,19.5100
2022-08-09T01:47:44.883Z,19.5500
2022-08-09T01:48:46.686Z,19.1300
2022-08-09T01:49:50.837Z,19.3200
2022-08-09T01:50:55.125Z,19.0600
2022-08-09T01:51:54.633Z,18.9200
2022-08-09T01:52:14.580Z,18.8400
2022-08-09T01:53:19.409Z,18.8600
2022-08-09T01:54:15.946Z,18.9100
2022-08-09T01:55:18.298Z,18.7200
2022-08-09T01:56:20.707Z,18.9200
2022-08-09T01:57:20.985Z,18.6800
2022-08-09T01:58:24.297Z,18.7700
2022-08-09T01:59:25.828Z,18.9900
2022-08-09T02:00:35.543Z,18.9500
2022-08-09T02:01:58.510Z,18.8200
2022-08-09T02:02:32.512Z,18.9600
2022-08-09T02:03:33.495Z,19.0500
2022-08-09T02:04:33.730Z,19.1100
2022-08-09T02:05:53.676Z,18.9000
2022-08-09T02:06:38.509Z,19.1200
2022-08-09T02:08:39.387Z,18.9200
2022-08-09T02:08:58.889Z,18.7100
2022-08-09T02:09:42.373Z,18.9700
2022-08-09T02:10:51.032Z,18.9600
2022-08-09T02:11:44.209Z,18.8900
2022-08-09T02:12:46.673Z,19.0100
2022-08-09T02:13:55.437Z,18.8900
2022-08-09T02:14:51.974Z,18.8000
2022-08-09T02:15:51.809Z,18.6200
2022-08-09T02:17:15.420Z,18.8200
2022-08-09T02:18:09.751Z,18.8600
2022-08-09T02:18:56.968Z,18.8600
2022-08-09T02:19:59.389Z,18.7300
2022-08-09T02:21:01.830Z,18.7100
2022-08-09T02:22:04.277Z,18.7900
2022-08-09T02:23:04.560Z,18.8600
2022-08-09T02:24:07.024Z,19.1500
2022-08-09T02:25:09.427Z,19.2900
2022-08-09T02:26:25.304Z,19.1500
2022-08-09T02:27:12.143Z,19.1900
2022-08-09T02:28:17.730Z,18.9900
2022-08-09T02:29:17.048Z,18.6400
2022-08-09T02:30:18.302Z,18.1900
2022-08-09T02:31:20.711Z,18.1100
2022-08-09T02:32:23.135Z,18.2500
2022-08-09T02:33:37.714Z,18.1100
2022-08-09T02:34:41.760Z,18.2800
2022-08-09T02:35:46.320Z,18.4000
2022-08-09T02:36:30.776Z,18.3800
2022-08-09T02:37:31.644Z,18.4900
2022-08-09T02:38:34.807Z,18.6300
2022-08-09T02:39:41.797Z,18.4700
2022-08-09T02:40:36.277Z,18.2200
2022-08-09T02:41:38.676Z,18.1900
2022-08-09T02:42:41.117Z,18.3400
2022-08-09T02:43:54.502Z,18.7100
2022-08-09T02:44:45.970Z,18.8500
2022-08-09T02:45:46.202Z,18.9900
2022-08-09T02:46:52.099Z,18.8200
2022-08-09T02:47:59.152Z,18.7500
2022-08-09T02:48:53.918Z,18.5600
2022-08-09T02:50:01.650Z,18.4300
2022-08-09T02:50:58.364Z,18.1500
2022-08-09T02:52:00.787Z,18.3500
2022-08-09T02:53:01.057Z,18.1900
2022-08-09T02:54:03.389Z,18.1100
2022-08-09T02:55:21.111Z,18.1300
2022-08-09T02:56:06.088Z,18.2700
2022-08-09T02:57:14.005Z,18.5300
2022-08-09T02:58:32.393Z,18.5100
2022-08-09T02:59:25.905Z,18.1600
2022-08-09T03:00:25.421Z,17.7100
2022-08-09T03:01:21.911Z,17.6100
2022-08-09T03:02:20.819Z,17.4800
2022-08-09T03:04:13.057Z,17.4000
2022-08-09T03:04:28.795Z,17.3200
2022-08-09T03:05:26.030Z,17.3700
2022-08-09T03:06:29.108Z,17.4300
2022-08-09T03:07:28.740Z,17.5000
2022-08-09T03:08:31.199Z,17.5400
2022-08-09T03:09:33.892Z,17.4300
2022-08-09T03:10:33.997Z,17.3600
2022-08-09T03:12:06.252Z,17.7700
2022-08-09T03:12:36.699Z,17.8700
2022-08-09T03:13:43.767Z,17.5100
2022-08-09T03:14:41.609Z,17.7900
2022-08-09T03:16:06.451Z,17.9500
2022-08-09T03:16:48.316Z,17.9400
2022-08-09T03:17:46.780Z,17.8300
2022-08-09T03:18:50.614Z,17.9100
2022-08-09T03:19:58.335Z,17.7500
2022-08-09T03:20:54.033Z,17.8900
2022-08-09T03:21:56.430Z,17.7100
2022-08-09T03:22:58.162Z,17.6600
2022-08-09T03:24:04.063Z,17.5700
2022-08-09T03:25:21.501Z,17.9000
2022-08-09T03:26:05.060Z,18.3500
2022-08-09T03:27:07.299Z,18.6500
2022-08-09T03:28:11.314Z,18.9500
2022-08-09T03:29:09.683Z,19.1800
2022-08-09T03:30:11.274Z,19.3400
2022-08-09T03:31:22.660Z,19.4800
2022-08-09T03:32:13.875Z,19.6200
2022-08-09T03:33:18.698Z,19.7500
2022-08-09T03:34:18.494Z,19.8500
2022-08-09T03:35:24.850Z,19.9200
2022-08-09T03:36:26.994Z,19.9800
2022-08-09T03:37:55.648Z,20.0400
2022-08-09T03:38:29.178Z,20.0800
2022-08-09T03:39:37.850Z,20.1300
2022-08-09T03:40:31.022Z,20.1600
2022-08-09T03:41:45.832Z,20.1600
2022-08-09T03:42:34.894Z,20.2100
2022-08-09T03:43:36.958Z,20.2600
2022-08-09T03:44:39.275Z,20.2700
2022-08-09T03:46:04.882Z,20.2900
2022-08-09T03:46:43.836Z,20.3300
2022-08-09T03:47:46.714Z,20.3500
2022-08-09T03:48:51.311Z,20.4000
2022-08-09T03:49:58.473Z,20.4400
2022-08-09T03:50:50.876Z,20.4600
2022-08-09T03:51:58.074Z,20.4900
2022-08-09T03:52:55.498Z,20.4500
2022-08-09T03:53:57.761Z,20.4500
2022-08-09T03:55:00.058Z,20.4700
2022-08-09T03:56:00.231Z,20.4800
2022-08-09T03:57:04.430Z,20.5000
2022-08-09T03:58:14.779Z,20.4600
2022-08-09T03:59:05.165Z,20.4900
2022-08-09T04:00:07.534Z,20.5300
2022-08-09T04:01:09.985Z,20.5700
2022-08-09T04:02:10.171Z,20.6000
2022-08-09T04:03:19.578Z,20.6000
2022-08-09T04:04:15.338Z,20.5600
2022-08-09T04:05:27.565Z,20.5900
2022-08-09T04:06:17.506Z,20.6000
2022-08-09T04:07:19.922Z,20.6400
2022-08-09T04:08:20.130Z,20.6700
2022-08-09T04:09:44.415Z,20.6500
2022-08-09T04:10:28.473Z,20.6100
2022-08-09T04:11:25.088Z,20.5700
2022-08-09T04:12:30.833Z,20.6300
2022-08-09T04:14:37.545Z,20.6300
2022-08-09T04:14:54.273Z,20.6600
2022-08-09T04:16:17.194Z,20.6800
2022-08-09T04:16:34.625Z,20.7100
2022-08-09T04:17:34.879Z,20.7600
2022-08-09T04:18:37.223Z,20.8000
2022-08-09T04:19:51.107Z,20.8200
2022-08-09T04:20:41.878Z,20.8400
2022-08-09T04:21:44.209Z,20.8600
2022-08-09T04:22:46.547Z,20.8600
2022-08-09T04:23:53.750Z,20.9000
2022-08-09T04:24:51.159Z,20.8900
2022-08-09T04:25:53.496Z,20.8800
2022-08-09T04:26:55.831Z,20.8900
2022-08-09T04:28:02.358Z,20.9300
2022-08-09T04:29:03.695Z,20.9500
2022-08-09T04:30:02.820Z,20.9400
2022-08-09T04:31:07.787Z,20.9600
2022-08-09T04:32:07.583Z,20.9600
2022-08-09T04:33:07.874Z,20.9600
2022-08-09T04:34:10.005Z,20.9500
2022-08-09T04:35:12.335Z,20.9600
2022-08-09T04:36:14.664Z,20.9400
2022-08-09T04:37:17.001Z,20.9200
2022-08-09T04:38:19.388Z,20.9500
2022-08-09T04:39:19.629Z,20.9700
2022-08-09T04:40:36.029Z,20.9500
2022-08-09T04:41:32.235Z,20.9600
2022-08-09T04:42:26.566Z,20.9600
2022-08-09T04:43:28.922Z,20.9200
2022-08-09T04:44:31.243Z,20.9100
2022-08-09T04:45:36.178Z,20.9200
2022-08-09T04:46:58.219Z,20.9400
2022-08-09T04:47:59.253Z,20.9300
2022-08-09T04:48:40.558Z,20.9300
2022-08-09T04:49:54.644Z,20.9700
2022-08-09T04:50:45.202Z,20.9800
2022-08-09T04:51:47.548Z,20.9700
2022-08-09T04:52:49.890Z,20.9600
2022-08-09T04:53:58.420Z,20.9300
2022-08-09T04:54:52.398Z,20.9000
2022-08-09T04:55:58.109Z,20.9200
2022-08-09T04:56:57.096Z,20.8700
2022-08-09T04:58:01.755Z,20.8200
2022-08-09T04:59:04.880Z,20.8200
2022-08-09T05:00:04.055Z,20.7900
2022-08-09T05:01:16.034Z,20.7900
2022-08-09T05:02:08.646Z,20.8300
2022-08-09T05:03:39.811Z,20.8400
2022-08-09T05:04:13.384Z,20.8600
2022-08-09T05:05:31.481Z,20.8800
2022-08-09T05:06:18.273Z,20.8600
2022-08-09T05:07:20.269Z,20.8800
2022-08-09T05:08:22.596Z,20.8800
2022-08-09T05:09:24.969Z,20.8600
2022-08-09T05:10:27.266Z,20.8600
2022-08-09T05:11:32.381Z,20.8800
2022-08-09T05:12:33.084Z,20.8700
2022-08-09T05:13:34.195Z,20.8900
2022-08-09T05:14:36.539Z,20.8900
2022-08-09T05:15:43.152Z,20.9100
2022-08-09T05:16:58.593Z,20.8900
2022-08-09T05:18:38.364Z,20.9300
2022-08-09T05:18:58.110Z,20.8800
2022-08-09T05:19:48.207Z,20.7300
2022-08-09T05:20:50.498Z,20.0200
2022-08-09T05:21:55.690Z,19.9000
2022-08-09T05:23:54.428Z,19.6700
2022-08-09T05:24:02.114Z,19.2400
2022-08-09T05:25:00.985Z,19.3300
2022-08-09T05:26:00.025Z,19.4100
2022-08-09T05:27:02.399Z,19.3900
2022-08-09T05:28:04.738Z,19.2600
2022-08-09T05:29:04.977Z,19.0200
2022-08-09T05:30:07.389Z,19.0100
2022-08-09T05:31:10.148Z,19.2200
2022-08-09T05:32:09.943Z,19.4000
2022-08-09T05:33:12.311Z,19.3000
2022-08-09T05:34:16.952Z,19.1800
2022-08-09T05:35:14.930Z,19.1100
2022-08-09T05:36:17.247Z,19.0400
2022-08-09T05:37:19.601Z,18.8700
2022-08-09T05:38:22.400Z,18.7800
2022-08-09T05:39:29.628Z,18.8600
2022-08-09T05:40:26.780Z,18.9800
2022-08-09T05:41:26.992Z,19.0300
2022-08-09T05:42:29.321Z,19.0400
2022-08-09T05:43:31.905Z,18.9800
2022-08-09T05:44:32.762Z,19.0600
2022-08-09T05:45:52.517Z,19.1900
2022-08-09T05:46:36.530Z,19.0300
2022-08-09T05:47:45.527Z,18.8700
2022-08-09T05:48:39.169Z,18.9200
2022-08-09T05:50:24.244Z,18.9300
2022-08-09T05:50:51.244Z,19.1000
2022-08-09T05:51:46.432Z,19.1400
2022-08-09T05:52:53.892Z,18.9700
2022-08-09T05:53:56.632Z,19.0000
2022-08-09T05:54:51.645Z,18.7700
2022-08-09T05:55:54.259Z,18.6600
2022-08-09T05:56:56.682Z,18.7500
2022-08-09T05:57:58.479Z,18.8400
2022-08-09T05:58:59.290Z,18.8500
2022-08-09T06:00:01.611Z,19.0900
2022-08-09T06:01:04.056Z,19.1300
2022-08-09T06:02:06.427Z,19.2100
2022-08-09T06:03:10.734Z,19.2500
2022-08-09T06:04:09.156Z,19.1400
2022-08-09T06:05:11.528Z,19.1900
2022-08-09T06:06:13.976Z,19.3200
2022-08-09T06:07:21.666Z,19.3100
2022-08-09T06:08:19.658Z,19.2600
2022-08-09T06:09:40.859Z,19.3800
2022-08-09T06:10:21.406Z,19.2900
2022-08-09T06:11:21.694Z,19.4700
2022-08-09T06:12:32.839Z,19.5600
2022-08-09T06:13:28.490Z,19.6000
2022-08-09T06:14:28.842Z,19.4900
2022-08-09T06:15:31.216Z,19.3700
2022-08-09T06:16:31.501Z,19.4500
2022-08-09T06:17:39.057Z,19.6200
2022-08-09T06:18:36.468Z,19.5500
2022-08-09T06:19:36.541Z,19.5500
2022-08-09T06:20:38.889Z,19.6000
2022-08-09T06:21:51.489Z,19.7000
2022-08-09T06:22:43.689Z,19.6900
2022-08-09T06:23:58.024Z,19.5600
2022-08-09T06:24:46.283Z,19.7600
2022-08-09T06:25:48.766Z,19.6900
2022-08-09T06:26:51.079Z,19.7000
2022-08-09T06:27:51.685Z,19.8900
2022-08-09T06:29:00.352Z,19.9100
2022-08-09T06:29:58.455Z,19.9100
2022-08-09T06:30:58.299Z,19.8900
2022-08-09T06:32:09.237Z,19.9900
2022-08-09T06:33:30.497Z,20.1100
2022-08-09T06:34:05.299Z,20.2500
2022-08-09T06:35:07.643Z,20.3600
2022-08-09T06:36:35.391Z,20.4500
2022-08-09T06:37:50.812Z,20.6400
2022-08-09T06:38:38.228Z,20.7300
2022-08-09T06:39:57.536Z,20.8100
2022-08-09T06:40:42.791Z,20.8700
2022-08-09T06:42:09.053Z,20.9300
2022-08-09T06:42:47.237Z,20.9600
2022-08-09T06:43:49.411Z,20.9900
2022-08-09T06:44:54.047Z,21.0200
2022-08-09T06:46:07.379Z,21.0700
2022-08-09T06:46:56.103Z,21.0800
2022-08-09T06:48:01.515Z,21.1200
2022-08-09T06:49:00.706Z,21.1300
2022-08-09T06:50:13.636Z,21.1500
2022-08-09T06:51:04.541Z,21.1500
2022-08-09T06:52:05.262Z,21.1700
2022-08-09T06:53:07.567Z,21.1800
2022-08-09T06:54:14.807Z,21.1900
2022-08-09T06:55:12.755Z,21.2000
2022-08-09T06:56:14.343Z,21.2200
2022-08-09T06:57:16.615Z,21.2400
2022-08-09T07:00:46.415Z,21.2600
2022-08-09T07:00:50.509Z,21.2600
2022-08-09T07:00:50.842Z,21.2600
2022-08-09T07:01:24.126Z,21.2700
2022-08-09T07:02:29.194Z,21.2800
2022-08-09T07:03:29.005Z,21.2800
2022-08-09T07:04:30.275Z,21.2900
2022-08-09T07:05:58.281Z,21.3000
2022-08-09T07:06:32.633Z,21.3000
2022-08-09T07:08:00.602Z,21.3200
2022-08-09T07:08:39.629Z,21.3200
2022-08-09T07:09:53.751Z,21.3300
2022-08-09T07:10:39.566Z,21.3400
2022-08-09T07:11:51.905Z,21.3600
2022-08-09T07:12:44.380Z,21.3600
2022-08-09T07:13:45.036Z,21.3600
2022-08-09T07:14:50.863Z,21.3600
2022-08-09T07:16:34.986Z,21.3600
2022-08-09T07:16:57.409Z,21.3700
2022-08-09T07:17:52.556Z,21.3700
2022-08-09T07:18:53.492Z,21.3800
2022-08-09T07:19:55.865Z,21.4000
2022-08-09T07:20:58.032Z,21.4100
2022-08-09T07:22:00.343Z,21.4200
2022-08-09T07:23:02.590Z,21.4300
2022-08-09T07:24:05.087Z,21.4100
2022-08-09T07:25:09.413Z,21.4400
2022-08-09T07:26:09.484Z,21.4300
2022-08-09T07:27:26.530Z,21.4400
2022-08-09T07:28:11.891Z,21.4400
2022-08-09T07:29:14.119Z,21.4300
2022-08-09T07:30:16.357Z,21.4500
2022-08-09T07:31:18.615Z,21.4600
2022-08-09T07:32:20.888Z,21.4600
2022-08-09T07:33:23.392Z,21.4600
2022-08-09T07:34:25.706Z,21.4800
2022-08-09T07:35:27.733Z,21.4900
2022-08-09T07:36:27.818Z,21.4900
2022-08-09T07:37:30.059Z,21.4900
2022-08-09T07:38:32.276Z,21.4800
2022-08-09T07:39:41.163Z,21.5000
2022-08-09T07:41:00.649Z,21.5000
2022-08-09T07:41:39.129Z,21.4900
2022-08-09T07:42:41.318Z,21.5000
2022-08-09T07:43:55.853Z,21.5200
2022-08-09T07:44:51.852Z,21.5100
2022-08-09T07:45:46.074Z,21.5000
2022-08-09T07:46:48.348Z,21.5300
2022-08-09T07:48:01.394Z,21.5400
2022-08-09T07:48:59.556Z,21.5100
2022-08-09T07:50:07.617Z,21.5100
2022-08-09T07:51:10.013Z,21.5100
2022-08-09T07:52:06.048Z,21.5200
2022-08-09T07:53:02.846Z,21.5200
2022-08-09T07:54:05.983Z,21.5300
2022-08-09T07:55:09.797Z,21.5400
2022-08-09T07:56:06.469Z,21.5400
2022-08-09T07:57:12.526Z,21.5500
2022-08-09T07:58:13.331Z,21.5700
2022-08-09T07:59:15.020Z,21.5600
2022-08-09T08:00:11.728Z,21.5600
2022-08-09T08:01:14.128Z,21.5600
2022-08-09T08:02:19.347Z,21.5700
2022-08-09T08:03:18.569Z,21.5900
2022-08-09T08:04:18.717Z,21.5800
2022-08-09T08:05:21.031Z,21.5900
2022-08-09T08:06:31.878Z,21.6100
2022-08-09T08:08:42.406Z,21.5900
2022-08-09T08:09:02.322Z,21.6000
2022-08-09T08:09:36.420Z,21.6000
2022-08-09T08:10:28.235Z,21.5900
2022-08-09T08:12:10.512Z,21.6000
2022-08-09T08:12:32.788Z,21.6100
2022-08-09T08:13:40.052Z,21.6300
2022-08-09T08:14:35.218Z,21.6300
2022-08-09T08:15:39.400Z,21.6300
2022-08-09T08:16:39.821Z,21.6300
2022-08-09T08:17:54.591Z,21.6200
2022-08-09T08:18:43.229Z,21.6200
2022-08-09T08:19:44.584Z,21.6300
2022-08-09T08:20:46.845Z,21.6400
2022-08-09T08:21:52.755Z,21.6500
2022-08-09T08:22:51.408Z,21.6400
2022-08-09T08:23:55.864Z,21.6500
2022-08-09T08:24:57.539Z,21.6500
2022-08-09T08:26:06.416Z,21.6700
2022-08-09T08:27:00.723Z,21.6600
2022-08-09T08:28:00.891Z,21.6800
2022-08-09T08:29:03.186Z,21.6900
2022-08-09T08:30:05.475Z,21.6900
2022-08-09T08:31:14.324Z,21.6900
2022-08-09T08:32:12.397Z,21.6800
2022-08-09T08:33:23.912Z,21.6900
2022-08-09T08:34:12.555Z,21.6900
2022-08-09T08:35:18.052Z,21.6900
2022-08-09T08:36:28.351Z,21.6800
2022-08-09T08:37:19.370Z,21.6900
2022-08-09T08:38:21.602Z,21.7200
2022-08-09T08:39:23.910Z,21.7100
2022-08-09T08:40:26.168Z,21.7200
2022-08-09T08:41:42.041Z,21.7200
2022-08-09T08:42:31.812Z,21.7000
2022-08-09T08:43:31.001Z,21.7100
2022-08-09T08:44:33.297Z,21.7300
2022-08-09T08:45:37.681Z,21.7400
2022-08-09T08:46:59.435Z,21.7200
2022-08-09T08:47:42.798Z,21.7500
2022-08-09T08:48:40.338Z,21.7300
2022-08-09T08:49:47.840Z,21.7300
2022-08-09T08:50:45.416Z,21.7300
2022-08-09T08:52:00.332Z,21.7300
2022-08-09T08:53:00.002Z,21.7400
2022-08-09T08:54:03.304Z,21.7400
2022-08-09T08:54:52.002Z,21.7500
2022-08-09T08:55:54.309Z,21.7600
2022-08-09T08:56:56.666Z,21.7700
2022-08-09T08:59:19.947Z,21.7400
2022-08-09T09:00:27.310Z,21.7400
2022-08-09T09:01:20.715Z,21.7500
2022-08-09T09:02:30.881Z,21.7500
2022-08-09T09:03:33.295Z,21.7600
2022-08-09T09:04:27.324Z,21.7500
2022-08-09T09:05:33.359Z,21.7800
2022-08-09T09:06:27.930Z,21.7700
2022-08-09T09:07:30.235Z,21.7800
2022-08-09T09:08:37.799Z,21.7800
2022-08-09T09:09:57.968Z,21.7700
2022-08-09T09:10:37.038Z,21.7900
2022-08-09T09:11:39.339Z,21.7900
2022-08-09T09:12:39.450Z,21.8100
2022-08-09T09:13:56.282Z,21.8200
2022-08-09T09:14:44.008Z,21.8100
2022-08-09T09:15:49.274Z,21.8200
2022-08-09T09:16:48.541Z,21.8200
2022-08-09T09:17:52.924Z,21.8300
2022-08-09T09:19:06.379Z,21.8300
2022-08-09T09:19:55.402Z,21.8300
2022-08-09T09:20:55.488Z,21.8400
2022-08-09T09:21:58.146Z,21.8400
2022-08-09T09:23:01.795Z,21.8500
2022-08-09T09:24:04.708Z,21.8500
2022-08-09T09:26:01.690Z,21.8400
2022-08-09T09:26:12.138Z,21.8400
2022-08-09T09:27:09.137Z,21.8500
2022-08-09T09:28:11.404Z,21.8500
2022-08-09T09:29:17.048Z,21.8600
2022-08-09T09:30:39.785Z,21.8500
2022-08-09T09:31:17.448Z,21.8600
2022-08-09T09:32:16.291Z,21.8500
2022-08-09T09:33:18.516Z,21.8800
2022-08-09T09:34:20.757Z,21.8900
2022-08-09T09:35:23.056Z,21.8900
2022-08-09T09:36:23.208Z,21.9000
2022-08-09T09:37:25.533Z,21.9200
2022-08-09T09:38:36.628Z,21.9000
2022-08-09T09:39:54.504Z,21.8900
2022-08-09T09:40:32.521Z,21.8800
2022-08-09T09:41:48.599Z,21.9000
2022-08-09T09:42:35.277Z,21.8900
2022-08-09T09:43:41.460Z,21.9100
2022-08-09T09:44:39.474Z,21.9100
2022-08-09T09:46:38.866Z,21.9200
2022-08-09T09:46:46.221Z,21.9100
2022-08-09T09:47:48.096Z,21.9100
2022-08-09T09:48:46.572Z,21.9000
2022-08-09T09:50:07.262Z,21.9200
2022-08-09T09:50:51.652Z,21.9100
2022-08-09T09:51:53.419Z,21.9300
2022-08-09T09:52:56.187Z,21.9200
2022-08-09T09:54:02.120Z,21.9500
2022-08-09T09:55:00.221Z,21.9300
2022-08-09T09:56:05.260Z,21.9200
2022-08-09T09:58:00.773Z,21.9400
2022-08-09T09:58:18.871Z,21.9400
2022-08-09T09:59:07.192Z,21.9400
2022-08-09T10:00:09.426Z,21.9500
2022-08-09T10:01:31.332Z,21.9600
2022-08-09T10:02:13.995Z,21.9400
2022-08-09T10:03:16.281Z,21.9700
2022-08-09T10:04:22.789Z,21.9700
2022-08-09T10:04:33.575Z,21.9500
2022-08-09T10:06:03.248Z,21.9700
2022-08-09T10:06:38.022Z,21.9700
2022-08-09T10:08:01.036Z,21.9700
2022-08-09T10:08:54.507Z,21.9500
2022-08-09T10:09:45.952Z,21.9500
2022-08-09T10:10:44.904Z,21.9700
2022-08-09T10:12:01.412Z,21.9800
2022-08-09T10:12:51.850Z,21.9800
2022-08-09T10:13:51.748Z,21.9800
2022-08-09T10:14:54.061Z,22.0000
2022-08-09T10:16:54.768Z,22.0100
2022-08-09T10:17:24.016Z,22.0200
2022-08-09T10:18:00.880Z,22.0000
2022-08-09T10:19:00.983Z,22.0100
2022-08-09T10:20:03.248Z,22.0200
2022-08-09T10:21:05.442Z,22.0200
2022-08-09T10:22:07.717Z,22.0400
2022-08-09T10:23:09.981Z,22.0400
2022-08-09T10:24:15.957Z,22.0500
2022-08-09T10:25:15.324Z,22.0500
2022-08-09T10:26:16.984Z,22.0300
2022-08-09T10:27:24.840Z,22.0300
2022-08-09T10:28:19.467Z,22.0300
2022-08-09T10:30:12.175Z,22.0400
2022-08-09T10:32:39.962Z,22.0200
2022-08-09T10:33:29.855Z,22.0300
2022-08-09T10:34:33.603Z,22.0200
2022-08-09T10:35:35.604Z,22.0200
2022-08-09T10:36:35.749Z,22.0300
2022-08-09T10:37:38.330Z,22.0200
2022-08-09T10:38:56.664Z,22.0400
2022-08-09T10:39:48.932Z,22.0500
2022-08-09T10:40:50.030Z,22.0600
2022-08-09T10:41:47.593Z,22.0600
2022-08-09T10:42:52.967Z,22.0700
2022-08-09T10:44:01.201Z,22.0600
2022-08-09T10:44:53.950Z,22.0500
2022-08-09T10:46:00.062Z,22.0600
2022-08-09T10:47:00.875Z,22.0600
2022-08-09T10:49:10.662Z,22.0500
2022-08-09T10:50:14.832Z,22.0700
2022-08-09T10:51:13.966Z,22.0700
2022-08-09T10:52:20.204Z,22.0900
2022-08-09T10:53:18.450Z,22.0800
2022-08-09T10:54:18.590Z,22.0800
2022-08-09T10:55:20.850Z,22.0800
2022-08-09T10:56:23.302Z,22.1100
2022-08-09T10:57:25.446Z,22.1000
2022-08-09T10:58:27.721Z,22.1000
2022-08-09T10:59:31.143Z,22.1200
2022-08-09T11:00:32.239Z,22.1400
2022-08-09T11:03:11.548Z,22.1500
2022-08-09T11:03:15.717Z,22.1300
2022-08-09T11:03:49.784Z,22.1400
2022-08-09T11:04:55.443Z,22.1400
2022-08-09T11:06:00.422Z,22.1300
2022-08-09T11:06:44.861Z,22.1300
2022-08-09T11:07:56.622Z,22.1300
2022-08-09T11:08:53.054Z,22.1300
2022-08-09T11:09:48.949Z,22.1300
2022-08-09T11:10:54.792Z,22.1400
2022-08-09T11:11:53.336Z,22.1300
2022-08-09T11:12:55.641Z,22.1500
2022-08-09T11:13:57.975Z,22.1900
2022-08-09T11:14:58.172Z,22.1800
2022-08-09T11:16:04.656Z,22.1800
2022-08-09T11:17:02.859Z,22.1700
2022-08-09T11:18:05.156Z,22.2100
2022-08-09T11:19:09.706Z,22.2000
2022-08-09T11:20:17.965Z,22.1900
2022-08-09T11:21:09.998Z,22.1900
2022-08-09T11:22:18.747Z,22.2200
2022-08-09T11:23:12.529Z,22.2100
2022-08-09T11:24:14.858Z,22.2200
2022-08-09T11:25:17.186Z,22.2300
2022-08-09T11:26:21.027Z,22.2500
2022-08-09T11:27:52.753Z,22.2500
2022-08-09T11:28:34.068Z,22.2400
2022-08-09T11:30:05.929Z,22.2400
2022-08-09T11:30:32.362Z,22.2600
2022-08-09T11:31:36.564Z,22.2500
2022-08-09T11:32:29.393Z,22.2700
2022-08-09T11:33:31.642Z,22.2900
2022-08-09T11:34:31.765Z,22.3100
2022-08-09T11:35:34.967Z,22.3300
2022-08-09T11:36:35.881Z,22.3200
2022-08-09T11:37:40.966Z,22.3300
2022-08-09T11:38:41.352Z,22.3300
2022-08-09T11:39:39.095Z,22.3200
2022-08-09T11:40:41.347Z,22.3500
2022-08-09T11:41:43.660Z,22.3500
2022-08-09T11:42:43.757Z,22.3600
2022-08-09T11:43:46.010Z,22.3700
2022-08-09T11:44:46.142Z,22.3700
2022-08-09T11:45:46.291Z,22.3900
2022-08-09T11:46:48.579Z,22.4000
2022-08-09T11:47:50.857Z,22.4100
2022-08-09T11:48:53.817Z,22.4200
2022-08-09T11:50:52.613Z,22.4200
2022-08-09T11:53:02.061Z,22.4000
2022-08-09T11:53:03.372Z,22.4000
2022-08-09T11:53:15.842Z,22.4000
2022-08-09T11:54:06.045Z,22.4000
2022-08-09T11:55:04.850Z,22.4000
2022-08-09T11:56:07.166Z,22.4200
2022-08-09T11:57:07.351Z,22.4200
2022-08-09T11:58:09.704Z,22.4300
2022-08-09T11:59:12.001Z,22.4300
2022-08-09T12:00:16.451Z,22.4400
2022-08-09T12:02:16.154Z,22.4400
2022-08-09T12:02:37.185Z,22.4400
2022-08-09T12:03:50.533Z,22.4300
2022-08-09T12:04:28.638Z,22.4400
2022-08-09T12:05:23.879Z,22.4400
2022-08-09T12:06:31.932Z,22.4600
2022-08-09T12:07:28.439Z,22.4500
2022-08-09T12:08:28.624Z,22.4600
2022-08-09T12:09:33.762Z,22.4800
2022-08-09T12:10:39.373Z,22.4900
2022-08-09T12:11:44.585Z,22.4700
2022-08-09T12:12:37.858Z,22.4700
2022-08-09T12:14:07.397Z,22.4700
2022-08-09T12:15:04.329Z,22.4700
2022-08-09T12:15:50.491Z,22.4800
2022-08-09T12:16:44.959Z,22.4900
2022-08-09T12:17:51.941Z,22.5000
2022-08-09T12:18:53.910Z,22.4900
2022-08-09T12:19:50.806Z,22.5000
2022-08-09T12:20:52.133Z,22.5200
2022-08-09T12:21:54.469Z,22.5300
2022-08-09T12:22:56.813Z,22.5300
2022-08-09T12:24:09.120Z,22.5400
2022-08-09T12:25:01.432Z,22.5300
2022-08-09T12:26:03.718Z,22.5400
2022-08-09T12:29:11.489Z,22.5500
2022-08-09T12:29:11.490Z,22.5400
2022-08-09T12:29:33.100Z,22.5400
2022-08-09T12:30:36.903Z,22.5400
2022-08-09T12:31:31.188Z,22.5300
2022-08-09T12:32:15.397Z,22.5400
2022-08-09T12:33:17.701Z,22.5500